Bee Caves, Texas
Current Conditions -  °F | °C
As of 2:51 PM on Thursday 23 Oct 2014 (Local Time) from KATT Reporting Station
Few Clouds Few Clouds  
Wind Chill: 81°   Ceiling: Unl
Heat Index: 81°   Visibility: 10mi
Dew Point: 59°   Wind: 6mph
Humidity: 47%   Direction: 120°ESE
Pressure: 30.09"   Gusts: NA
Location:  30.3763°N, 97.9464°W
Report Text: KATT 231951Z AUTO 12005KT 10SM FEW048 FEW100 27/15 A3009 RMK AO2 SLP178 T02720150
Loading
Personal Weather Stations






























Interactive Weather Map
Tropical Storm Tracking
New forecast layout! Learn more

10-Day Weather Forecast

Advertisements
Track Severe Weather on mobile